sensor_id;sensor_type;location;lat;lon;timestamp;P1;durP1;ratioP1;P2;durP2;ratioP2
46689;SDS011;32423;45.398;10.874;2023-07-13T00:01:21;12.20;;;1.40;;
46689;SDS011;32423;45.398;10.874;2023-07-13T00:04:08;4.00;;;0.90;;
46689;SDS011;32423;45.398;10.874;2023-07-13T00:06:53;8.90;;;1.08;;
46689;SDS011;32423;45.398;10.874;2023-07-13T00:09:38;2.38;;;0.68;;
46689;SDS011;32423;45.398;10.874;2023-07-13T00:12:27;1.75;;;0.50;;
46689;SDS011;32423;45.398;10.874;2023-07-13T00:15:17;2.70;;;0.57;;
46689;SDS011;32423;45.398;10.874;2023-07-13T00:18:07;3.97;;;0.90;;
46689;SDS011;32423;45.398;10.874;2023-07-13T00:20:51;5.43;;;0.63;;
46689;SDS011;32423;45.398;10.874;2023-07-13T00:23:37;2.30;;;0.88;;
46689;SDS011;32423;45.398;10.874;2023-07-13T00:26:23;3.58;;;0.90;;
46689;SDS011;32423;45.398;10.874;2023-07-13T00:29:08;2.90;;;0.70;;
46689;SDS011;32423;45.398;10.874;2023-07-13T00:31:54;3.38;;;0.60;;
46689;SDS011;32423;45.398;10.874;2023-07-13T00:34:39;2.22;;;1.02;;
46689;SDS011;32423;45.398;10.874;2023-07-13T00:37:24;1.95;;;0.55;;
46689;SDS011;32423;45.398;10.874;2023-07-13T00:40:09;5.47;;;1.02;;
46689;SDS011;32423;45.398;10.874;2023-07-13T00:42:58;1.85;;;0.80;;
46689;SDS011;32423;45.398;10.874;2023-07-13T00:48:29;1.75;;;0.82;;
46689;SDS011;32423;45.398;10.874;2023-07-13T00:51:24;1.95;;;0.80;;
46689;SDS011;32423;45.398;10.874;2023-07-13T00:54:15;4.78;;;0.73;;
46689;SDS011;32423;45.398;10.874;2023-07-13T00:57:15;2.63;;;0.93;;
46689;SDS011;32423;45.398;10.874;2023-07-13T01:00:04;2.67;;;0.50;;
46689;SDS011;32423;45.398;10.874;2023-07-13T01:02:51;2.75;;;0.60;;
46689;SDS011;32423;45.398;10.874;2023-07-13T01:05:36;1.15;;;0.80;;
46689;SDS011;32423;45.398;10.874;2023-07-13T01:08:21;1.85;;;0.60;;
46689;SDS011;32423;45.398;10.874;2023-07-13T01:11:06;3.00;;;0.60;;
46689;SDS011;32423;45.398;10.874;2023-07-13T01:13:52;1.33;;;0.68;;
46689;SDS011;32423;45.398;10.874;2023-07-13T01:16:38;1.60;;;0.50;;
46689;SDS011;32423;45.398;10.874;2023-07-13T01:19:37;0.93;;;0.45;;
46689;SDS011;32423;45.398;10.874;2023-07-13T01:22:24;1.23;;;0.40;;
46689;SDS011;32423;45.398;10.874;2023-07-13T01:25:10;1.15;;;0.52;;
46689;SDS011;32423;45.398;10.874;2023-07-13T01:27:55;2.05;;;1.13;;
46689;SDS011;32423;45.398;10.874;2023-07-13T01:30:40;2.65;;;0.63;;
46689;SDS011;32423;45.398;10.874;2023-07-13T01:33:25;5.60;;;1.25;;
46689;SDS011;32423;45.398;10.874;2023-07-13T01:36:11;1.50;;;0.70;;
46689;SDS011;32423;45.398;10.874;2023-07-13T01:38:56;1.40;;;0.63;;
46689;SDS011;32423;45.398;10.874;2023-07-13T01:41:41;3.72;;;1.05;;
46689;SDS011;32423;45.398;10.874;2023-07-13T01:44:25;1.65;;;0.55;;
46689;SDS011;32423;45.398;10.874;2023-07-13T01:47:10;9.85;;;0.70;;
46689;SDS011;32423;45.398;10.874;2023-07-13T01:49:55;2.03;;;0.70;;
46689;SDS011;32423;45.398;10.874;2023-07-13T01:52:41;4.30;;;0.47;;
46689;SDS011;32423;45.398;10.874;2023-07-13T01:55:26;3.38;;;0.80;;
46689;SDS011;32423;45.398;10.874;2023-07-13T01:58:11;1.30;;;0.40;;
46689;SDS011;32423;45.398;10.874;2023-07-13T02:00:57;2.28;;;0.88;;
46689;SDS011;32423;45.398;10.874;2023-07-13T02:03:42;3.13;;;0.60;;
46689;SDS011;32423;45.398;10.874;2023-07-13T02:06:27;1.27;;;0.65;;
46689;SDS011;32423;45.398;10.874;2023-07-13T02:09:11;2.13;;;1.02;;
46689;SDS011;32423;45.398;10.874;2023-07-13T02:11:56;1.52;;;0.70;;
46689;SDS011;32423;45.398;10.874;2023-07-13T02:14:41;2.05;;;0.60;;
46689;SDS011;32423;45.398;10.874;2023-07-13T02:17:26;3.38;;;1.00;;
46689;SDS011;32423;45.398;10.874;2023-07-13T02:20:10;4.03;;;1.25;;
46689;SDS011;32423;45.398;10.874;2023-07-13T02:22:55;2.40;;;0.70;;
46689;SDS011;32423;45.398;10.874;2023-07-13T02:25:40;3.42;;;0.93;;
46689;SDS011;32423;45.398;10.874;2023-07-13T02:28:26;1.63;;;0.90;;
46689;SDS011;32423;45.398;10.874;2023-07-13T02:31:12;5.32;;;0.73;;
46689;SDS011;32423;45.398;10.874;2023-07-13T02:33:58;2.25;;;0.90;;
46689;SDS011;32423;45.398;10.874;2023-07-13T02:36:43;3.10;;;1.00;;
46689;SDS011;32423;45.398;10.874;2023-07-13T02:39:28;7.53;;;1.20;;
46689;SDS011;32423;45.398;10.874;2023-07-13T02:42:13;3.55;;;1.05;;
46689;SDS011;32423;45.398;10.874;2023-07-13T02:44:58;2.25;;;0.90;;
46689;SDS011;32423;45.398;10.874;2023-07-13T02:47:43;3.83;;;0.93;;
46689;SDS011;32423;45.398;10.874;2023-07-13T02:50:29;4.68;;;1.25;;
46689;SDS011;32423;45.398;10.874;2023-07-13T02:53:14;5.82;;;1.17;;
46689;SDS011;32423;45.398;10.874;2023-07-13T02:55:58;5.68;;;1.25;;
46689;SDS011;32423;45.398;10.874;2023-07-13T02:58:43;3.63;;;0.90;;
46689;SDS011;32423;45.398;10.874;2023-07-13T03:01:28;2.08;;;0.70;;
46689;SDS011;32423;45.398;10.874;2023-07-13T03:04:13;4.38;;;0.80;;
46689;SDS011;32423;45.398;10.874;2023-07-13T03:06:58;4.28;;;1.40;;
46689;SDS011;32423;45.398;10.874;2023-07-13T03:09:48;2.88;;;1.00;;
46689;SDS011;32423;45.398;10.874;2023-07-13T03:12:34;3.72;;;0.80;;
46689;SDS011;32423;45.398;10.874;2023-07-13T03:15:22;3.92;;;1.17;;
46689;SDS011;32423;45.398;10.874;2023-07-13T03:18:08;5.70;;;1.05;;
46689;SDS011;32423;45.398;10.874;2023-07-13T03:20:52;3.67;;;0.77;;
46689;SDS011;32423;45.398;10.874;2023-07-13T03:23:38;4.20;;;1.05;;
46689;SDS011;32423;45.398;10.874;2023-07-13T03:26:23;2.30;;;1.10;;
46689;SDS011;32423;45.398;10.874;2023-07-13T03:29:08;5.55;;;1.30;;
46689;SDS011;32423;45.398;10.874;2023-07-13T03:31:53;1.98;;;0.57;;
46689;SDS011;32423;45.398;10.874;2023-07-13T03:34:40;2.78;;;1.23;;
46689;SDS011;32423;45.398;10.874;2023-07-13T03:37:25;2.17;;;0.90;;
46689;SDS011;32423;45.398;10.874;2023-07-13T03:40:10;3.30;;;0.60;;
46689;SDS011;32423;45.398;10.874;2023-07-13T03:42:55;6.47;;;1.00;;
46689;SDS011;32423;45.398;10.874;2023-07-13T03:45:40;2.30;;;0.90;;
46689;SDS011;32423;45.398;10.874;2023-07-13T03:48:25;2.60;;;1.17;;
46689;SDS011;32423;45.398;10.874;2023-07-13T03:51:11;4.72;;;0.77;;
46689;SDS011;32423;45.398;10.874;2023-07-13T03:53:59;3.40;;;0.98;;
46689;SDS011;32423;45.398;10.874;2023-07-13T03:56:44;4.55;;;1.13;;
46689;SDS011;32423;45.398;10.874;2023-07-13T03:59:28;1.55;;;0.98;;
46689;SDS011;32423;45.398;10.874;2023-07-13T04:02:13;5.82;;;1.52;;
46689;SDS011;32423;45.398;10.874;2023-07-13T04:04:58;8.40;;;1.60;;
46689;SDS011;32423;45.398;10.874;2023-07-13T04:07:43;5.38;;;1.50;;
46689;SDS011;32423;45.398;10.874;2023-07-13T04:10:28;3.67;;;1.40;;
46689;SDS011;32423;45.398;10.874;2023-07-13T04:13:14;4.70;;;1.30;;
46689;SDS011;32423;45.398;10.874;2023-07-13T04:15:59;2.17;;;1.33;;
46689;SDS011;32423;45.398;10.874;2023-07-13T04:18:44;1.73;;;1.20;;
46689;SDS011;32423;45.398;10.874;2023-07-13T04:21:30;5.43;;;1.10;;
46689;SDS011;32423;45.398;10.874;2023-07-13T04:24:15;3.80;;;1.80;;
46689;SDS011;32423;45.398;10.874;2023-07-13T04:27:01;7.00;;;2.22;;
46689;SDS011;32423;45.398;10.874;2023-07-13T04:29:48;3.65;;;1.80;;
46689;SDS011;32423;45.398;10.874;2023-07-13T04:32:33;5.25;;;1.33;;
46689;SDS011;32423;45.398;10.874;2023-07-13T04:35:19;4.85;;;2.17;;
46689;SDS011;32423;45.398;10.874;2023-07-13T04:38:05;2.78;;;1.85;;
46689;SDS011;32423;45.398;10.874;2023-07-13T04:40:50;3.83;;;1.90;;
46689;SDS011;32423;45.398;10.874;2023-07-13T04:43:36;5.63;;;1.85;;
46689;SDS011;32423;45.398;10.874;2023-07-13T04:46:21;11.05;;;1.65;;
46689;SDS011;32423;45.398;10.874;2023-07-13T04:49:06;4.15;;;1.60;;
46689;SDS011;32423;45.398;10.874;2023-07-13T04:51:52;6.95;;;2.45;;
46689;SDS011;32423;45.398;10.874;2023-07-13T04:54:37;4.72;;;1.65;;
46689;SDS011;32423;45.398;10.874;2023-07-13T04:57:23;9.23;;;1.77;;
46689;SDS011;32423;45.398;10.874;2023-07-13T05:00:08;13.75;;;1.85;;
46689;SDS011;32423;45.398;10.874;2023-07-13T05:02:54;4.15;;;1.70;;
46689;SDS011;32423;45.398;10.874;2023-07-13T05:05:39;2.95;;;1.58;;
46689;SDS011;32423;45.398;10.874;2023-07-13T05:08:26;5.57;;;1.70;;
46689;SDS011;32423;45.398;10.874;2023-07-13T05:11:11;7.35;;;1.58;;
46689;SDS011;32423;45.398;10.874;2023-07-13T05:13:56;4.35;;;1.65;;
46689;SDS011;32423;45.398;10.874;2023-07-13T05:16:41;2.13;;;1.05;;
46689;SDS011;32423;45.398;10.874;2023-07-13T05:19:26;6.80;;;1.77;;
46689;SDS011;32423;45.398;10.874;2023-07-13T05:22:11;3.80;;;1.70;;
46689;SDS011;32423;45.398;10.874;2023-07-13T05:24:56;2.45;;;1.45;;
46689;SDS011;32423;45.398;10.874;2023-07-13T05:27:41;5.90;;;1.23;;
46689;SDS011;32423;45.398;10.874;2023-07-13T05:30:26;6.43;;;1.88;;
46689;SDS011;32423;45.398;10.874;2023-07-13T05:33:11;13.27;;;1.95;;
46689;SDS011;32423;45.398;10.874;2023-07-13T05:35:56;23.02;;;3.08;;
46689;SDS011;32423;45.398;10.874;2023-07-13T05:38:41;25.10;;;2.58;;
46689;SDS011;32423;45.398;10.874;2023-07-13T05:41:26;6.03;;;1.50;;
46689;SDS011;32423;45.398;10.874;2023-07-13T05:44:11;4.80;;;1.48;;
46689;SDS011;32423;45.398;10.874;2023-07-13T05:46:56;5.20;;;1.25;;
46689;SDS011;32423;45.398;10.874;2023-07-13T05:49:41;7.53;;;1.13;;
46689;SDS011;32423;45.398;10.874;2023-07-13T05:52:26;5.22;;;1.48;;
46689;SDS011;32423;45.398;10.874;2023-07-13T05:55:11;4.38;;;0.90;;
46689;SDS011;32423;45.398;10.874;2023-07-13T05:57:56;4.03;;;1.27;;
46689;SDS011;32423;45.398;10.874;2023-07-13T06:00:42;4.55;;;1.20;;
46689;SDS011;32423;45.398;10.874;2023-07-13T06:03:27;6.95;;;2.05;;
46689;SDS011;32423;45.398;10.874;2023-07-13T06:06:12;7.32;;;1.70;;
46689;SDS011;32423;45.398;10.874;2023-07-13T06:08:57;9.02;;;1.73;;
46689;SDS011;32423;45.398;10.874;2023-07-13T06:11:42;6.68;;;1.88;;
46689;SDS011;32423;45.398;10.874;2023-07-13T06:14:28;14.10;;;2.05;;
46689;SDS011;32423;45.398;10.874;2023-07-13T06:17:13;5.47;;;1.70;;
46689;SDS011;32423;45.398;10.874;2023-07-13T06:19:58;7.18;;;1.65;;
46689;SDS011;32423;45.398;10.874;2023-07-13T06:22:43;5.57;;;1.92;;
46689;SDS011;32423;45.398;10.874;2023-07-13T06:25:27;6.00;;;1.35;;
46689;SDS011;32423;45.398;10.874;2023-07-13T06:28:12;13.43;;;1.90;;
46689;SDS011;32423;45.398;10.874;2023-07-13T06:30:58;4.28;;;1.52;;
46689;SDS011;32423;45.398;10.874;2023-07-13T06:33:43;7.05;;;1.50;;
46689;SDS011;32423;45.398;10.874;2023-07-13T06:36:28;7.45;;;1.30;;
46689;SDS011;32423;45.398;10.874;2023-07-13T06:39:13;6.50;;;2.10;;
46689;SDS011;32423;45.398;10.874;2023-07-13T06:41:58;8.00;;;2.03;;
46689;SDS011;32423;45.398;10.874;2023-07-13T06:44:43;14.07;;;1.92;;
46689;SDS011;32423;45.398;10.874;2023-07-13T06:47:28;11.65;;;1.80;;
46689;SDS011;32423;45.398;10.874;2023-07-13T06:50:13;11.27;;;1.95;;
46689;SDS011;32423;45.398;10.874;2023-07-13T06:52:58;5.47;;;2.20;;
46689;SDS011;32423;45.398;10.874;2023-07-13T06:55:44;5.95;;;1.35;;
46689;SDS011;32423;45.398;10.874;2023-07-13T06:58:30;7.60;;;1.73;;
46689;SDS011;32423;45.398;10.874;2023-07-13T07:01:15;5.25;;;1.60;;
46689;SDS011;32423;45.398;10.874;2023-07-13T07:04:00;4.93;;;2.03;;
46689;SDS011;32423;45.398;10.874;2023-07-13T07:06:45;6.57;;;1.65;;
46689;SDS011;32423;45.398;10.874;2023-07-13T07:09:30;13.43;;;1.70;;
46689;SDS011;32423;45.398;10.874;2023-07-13T07:12:16;7.15;;;1.38;;
46689;SDS011;32423;45.398;10.874;2023-07-13T07:15:01;7.97;;;1.98;;
46689;SDS011;32423;45.398;10.874;2023-07-13T07:17:45;6.22;;;1.33;;
46689;SDS011;32423;45.398;10.874;2023-07-13T07:20:31;7.75;;;1.85;;
46689;SDS011;32423;45.398;10.874;2023-07-13T07:23:16;14.65;;;2.05;;
46689;SDS011;32423;45.398;10.874;2023-07-13T07:26:03;4.75;;;1.35;;
46689;SDS011;32423;45.398;10.874;2023-07-13T07:28:48;3.75;;;1.35;;
46689;SDS011;32423;45.398;10.874;2023-07-13T07:31:33;8.13;;;1.85;;
46689;SDS011;32423;45.398;10.874;2023-07-13T07:34:18;4.97;;;1.17;;
46689;SDS011;32423;45.398;10.874;2023-07-13T07:37:03;4.22;;;1.20;;
46689;SDS011;32423;45.398;10.874;2023-07-13T07:39:48;7.22;;;1.08;;
46689;SDS011;32423;45.398;10.874;2023-07-13T07:42:33;3.88;;;0.88;;
46689;SDS011;32423;45.398;10.874;2023-07-13T07:45:18;5.07;;;1.20;;
46689;SDS011;32423;45.398;10.874;2023-07-13T07:48:04;7.00;;;1.73;;
46689;SDS011;32423;45.398;10.874;2023-07-13T07:50:49;4.60;;;1.00;;
46689;SDS011;32423;45.398;10.874;2023-07-13T07:53:34;10.15;;;1.20;;
46689;SDS011;32423;45.398;10.874;2023-07-13T07:56:20;4.32;;;0.90;;
46689;SDS011;32423;45.398;10.874;2023-07-13T07:59:05;7.30;;;1.15;;
46689;SDS011;32423;45.398;10.874;2023-07-13T08:01:50;7.15;;;1.10;;
46689;SDS011;32423;45.398;10.874;2023-07-13T08:04:35;4.97;;;0.95;;
46689;SDS011;32423;45.398;10.874;2023-07-13T08:07:20;10.07;;;1.73;;
46689;SDS011;32423;45.398;10.874;2023-07-13T08:10:08;10.40;;;1.10;;
46689;SDS011;32423;45.398;10.874;2023-07-13T08:12:53;14.20;;;1.65;;
46689;SDS011;32423;45.398;10.874;2023-07-13T08:15:38;17.90;;;1.63;;
46689;SDS011;32423;45.398;10.874;2023-07-13T08:18:24;5.80;;;1.35;;
46689;SDS011;32423;45.398;10.874;2023-07-13T08:21:09;10.38;;;1.75;;
46689;SDS011;32423;45.398;10.874;2023-07-13T08:23:54;4.93;;;1.30;;
46689;SDS011;32423;45.398;10.874;2023-07-13T08:26:40;8.68;;;1.90;;
46689;SDS011;32423;45.398;10.874;2023-07-13T08:29:25;3.92;;;1.23;;
46689;SDS011;32423;45.398;10.874;2023-07-13T08:32:10;5.22;;;1.27;;
46689;SDS011;32423;45.398;10.874;2023-07-13T08:34:55;10.52;;;1.65;;
46689;SDS011;32423;45.398;10.874;2023-07-13T08:37:40;8.75;;;1.48;;
46689;SDS011;32423;45.398;10.874;2023-07-13T08:40:25;9.57;;;1.42;;
46689;SDS011;32423;45.398;10.874;2023-07-13T08:43:19;4.32;;;1.40;;
46689;SDS011;32423;45.398;10.874;2023-07-13T08:49:12;7.13;;;1.42;;
46689;SDS011;32423;45.398;10.874;2023-07-13T08:52:07;5.67;;;1.33;;
46689;SDS011;32423;45.398;10.874;2023-07-13T08:55:06;5.65;;;0.90;;
46689;SDS011;32423;45.398;10.874;2023-07-13T08:58:13;4.75;;;1.45;;
46689;SDS011;32423;45.398;10.874;2023-07-13T09:10:20;3.28;;;1.10;;
46689;SDS011;32423;45.398;10.874;2023-07-13T09:16:14;4.00;;;0.90;;
46689;SDS011;32423;45.398;10.874;2023-07-13T09:19:02;5.93;;;1.75;;
46689;SDS011;32423;45.398;10.874;2023-07-13T09:21:52;2.13;;;1.30;;
46689;SDS011;32423;45.398;10.874;2023-07-13T09:28:10;7.60;;;1.40;;
46689;SDS011;32423;45.398;10.874;2023-07-13T09:34:18;6.70;;;1.30;;
46689;SDS011;32423;45.398;10.874;2023-07-13T09:37:02;8.60;;;1.80;;
46689;SDS011;32423;45.398;10.874;2023-07-13T09:39:49;6.32;;;1.20;;
46689;SDS011;32423;45.398;10.874;2023-07-13T09:42:34;9.20;;;1.38;;
46689;SDS011;32423;45.398;10.874;2023-07-13T09:45:27;3.63;;;1.15;;
46689;SDS011;32423;45.398;10.874;2023-07-13T09:48:13;10.93;;;1.05;;
46689;SDS011;32423;45.398;10.874;2023-07-13T09:51:02;3.47;;;1.00;;
46689;SDS011;32423;45.398;10.874;2023-07-13T09:53:58;3.40;;;1.65;;
46689;SDS011;32423;45.398;10.874;2023-07-13T09:56:43;2.60;;;1.05;;
46689;SDS011;32423;45.398;10.874;2023-07-13T09:59:33;4.10;;;1.52;;
46689;SDS011;32423;45.398;10.874;2023-07-13T10:02:29;3.42;;;1.52;;
46689;SDS011;32423;45.398;10.874;2023-07-13T10:05:19;3.75;;;1.38;;
46689;SDS011;32423;45.398;10.874;2023-07-13T10:08:14;4.65;;;1.50;;
46689;SDS011;32423;45.398;10.874;2023-07-13T10:11:11;7.85;;;1.10;;
46689;SDS011;32423;45.398;10.874;2023-07-13T10:14:02;6.35;;;1.23;;
46689;SDS011;32423;45.398;10.874;2023-07-13T10:16:59;3.95;;;1.50;;
46689;SDS011;32423;45.398;10.874;2023-07-13T10:19:46;6.38;;;1.27;;
46689;SDS011;32423;45.398;10.874;2023-07-13T10:25:37;10.50;;;2.15;;
46689;SDS011;32423;45.398;10.874;2023-07-13T10:31:13;9.52;;;1.65;;
46689;SDS011;32423;45.398;10.874;2023-07-13T10:34:00;6.60;;;1.48;;
46689;SDS011;32423;45.398;10.874;2023-07-13T10:36:46;6.63;;;1.50;;
46689;SDS011;32423;45.398;10.874;2023-07-13T10:39:32;7.70;;;1.90;;
46689;SDS011;32423;45.398;10.874;2023-07-13T10:42:24;5.60;;;1.63;;
46689;SDS011;32423;45.398;10.874;2023-07-13T10:47:59;6.72;;;1.23;;
46689;SDS011;32423;45.398;10.874;2023-07-13T10:50:45;8.88;;;1.85;;
46689;SDS011;32423;45.398;10.874;2023-07-13T10:53:34;4.85;;;1.50;;
46689;SDS011;32423;45.398;10.874;2023-07-13T10:56:28;11.02;;;1.65;;
46689;SDS011;32423;45.398;10.874;2023-07-13T10:59:18;9.45;;;1.73;;
46689;SDS011;32423;45.398;10.874;2023-07-13T11:02:20;5.13;;;1.95;;
46689;SDS011;32423;45.398;10.874;2023-07-13T11:05:29;4.97;;;1.60;;
46689;SDS011;32423;45.398;10.874;2023-07-13T11:26:00;8.57;;;2.40;;
46689;SDS011;32423;45.398;10.874;2023-07-13T11:28:45;6.15;;;1.55;;
46689;SDS011;32423;45.398;10.874;2023-07-13T11:31:34;4.10;;;1.77;;
46689;SDS011;32423;45.398;10.874;2023-07-13T11:34:38;6.75;;;2.28;;
46689;SDS011;32423;45.398;10.874;2023-07-13T11:37:23;5.00;;;1.70;;
46689;SDS011;32423;45.398;10.874;2023-07-13T11:40:12;5.93;;;1.95;;
46689;SDS011;32423;45.398;10.874;2023-07-13T11:43:00;10.52;;;2.40;;
46689;SDS011;32423;45.398;10.874;2023-07-13T11:45:45;7.60;;;1.90;;
46689;SDS011;32423;45.398;10.874;2023-07-13T11:48:30;10.52;;;1.90;;
46689;SDS011;32423;45.398;10.874;2023-07-13T11:54:05;4.53;;;1.85;;
46689;SDS011;32423;45.398;10.874;2023-07-13T12:00:14;11.80;;;2.08;;
46689;SDS011;32423;45.398;10.874;2023-07-13T12:03:02;5.85;;;1.45;;
46689;SDS011;32423;45.398;10.874;2023-07-13T12:05:55;11.45;;;1.83;;
46689;SDS011;32423;45.398;10.874;2023-07-13T12:08:42;9.10;;;2.25;;
46689;SDS011;32423;45.398;10.874;2023-07-13T12:11:27;3.78;;;1.67;;
46689;SDS011;32423;45.398;10.874;2023-07-13T12:14:15;5.70;;;1.35;;
46689;SDS011;32423;45.398;10.874;2023-07-13T12:17:03;8.80;;;2.03;;
46689;SDS011;32423;45.398;10.874;2023-07-13T12:19:55;9.52;;;1.45;;
46689;SDS011;32423;45.398;10.874;2023-07-13T12:22:40;9.63;;;1.38;;
46689;SDS011;32423;45.398;10.874;2023-07-13T12:25:30;6.38;;;1.92;;
46689;SDS011;32423;45.398;10.874;2023-07-13T12:28:22;8.05;;;1.50;;
46689;SDS011;32423;45.398;10.874;2023-07-13T12:34:20;7.20;;;2.50;;
46689;SDS011;32423;45.398;10.874;2023-07-13T12:37:08;7.85;;;2.28;;
46689;SDS011;32423;45.398;10.874;2023-07-13T12:39:56;6.45;;;1.83;;
46689;SDS011;32423;45.398;10.874;2023-07-13T12:42:41;4.47;;;1.75;;
46689;SDS011;32423;45.398;10.874;2023-07-13T12:45:27;5.18;;;2.13;;
46689;SDS011;32423;45.398;10.874;2023-07-13T12:48:20;6.88;;;2.40;;
46689;SDS011;32423;45.398;10.874;2023-07-13T12:51:08;7.88;;;1.55;;
46689;SDS011;32423;45.398;10.874;2023-07-13T12:54:40;5.80;;;1.67;;
46689;SDS011;32423;45.398;10.874;2023-07-13T12:57:03;6.25;;;1.50;;
46689;SDS011;32423;45.398;10.874;2023-07-13T12:59:51;10.65;;;2.45;;
46689;SDS011;32423;45.398;10.874;2023-07-13T13:02:37;9.63;;;1.63;;
46689;SDS011;32423;45.398;10.874;2023-07-13T13:05:22;9.27;;;1.70;;
46689;SDS011;32423;45.398;10.874;2023-07-13T13:08:10;6.53;;;1.52;;
46689;SDS011;32423;45.398;10.874;2023-07-13T13:10:56;7.57;;;2.03;;
46689;SDS011;32423;45.398;10.874;2023-07-13T13:13:40;6.38;;;2.25;;
46689;SDS011;32423;45.398;10.874;2023-07-13T13:16:32;7.65;;;1.65;;
46689;SDS011;32423;45.398;10.874;2023-07-13T13:19:20;5.20;;;1.85;;
46689;SDS011;32423;45.398;10.874;2023-07-13T13:22:07;4.63;;;1.70;;
46689;SDS011;32423;45.398;10.874;2023-07-13T13:24:52;7.18;;;2.10;;
46689;SDS011;32423;45.398;10.874;2023-07-13T13:27:36;5.10;;;1.60;;
46689;SDS011;32423;45.398;10.874;2023-07-13T13:30:22;9.70;;;1.83;;
46689;SDS011;32423;45.398;10.874;2023-07-13T13:33:09;3.95;;;1.65;;
46689;SDS011;32423;45.398;10.874;2023-07-13T13:35:56;5.90;;;1.75;;
46689;SDS011;32423;45.398;10.874;2023-07-13T13:38:41;8.82;;;2.33;;
46689;SDS011;32423;45.398;10.874;2023-07-13T13:41:26;7.78;;;1.75;;
46689;SDS011;32423;45.398;10.874;2023-07-13T13:44:10;5.50;;;1.70;;
46689;SDS011;32423;45.398;10.874;2023-07-13T13:46:56;6.47;;;1.75;;
46689;SDS011;32423;45.398;10.874;2023-07-13T13:49:42;10.68;;;2.30;;
46689;SDS011;32423;45.398;10.874;2023-07-13T13:52:27;5.50;;;2.53;;
46689;SDS011;32423;45.398;10.874;2023-07-13T13:55:21;10.70;;;2.08;;
46689;SDS011;32423;45.398;10.874;2023-07-13T13:58:09;3.72;;;2.13;;
46689;SDS011;32423;45.398;10.874;2023-07-13T14:00:54;7.72;;;1.98;;
46689;SDS011;32423;45.398;10.874;2023-07-13T14:03:39;7.70;;;2.20;;
46689;SDS011;32423;45.398;10.874;2023-07-13T14:06:24;7.40;;;2.28;;
46689;SDS011;32423;45.398;10.874;2023-07-13T14:09:13;8.70;;;2.55;;
46689;SDS011;32423;45.398;10.874;2023-07-13T14:11:59;11.40;;;2.15;;
46689;SDS011;32423;45.398;10.874;2023-07-13T14:14:44;10.18;;;2.92;;
46689;SDS011;32423;45.398;10.874;2023-07-13T14:17:29;10.05;;;2.42;;
46689;SDS011;32423;45.398;10.874;2023-07-13T14:20:14;6.90;;;2.13;;
46689;SDS011;32423;45.398;10.874;2023-07-13T14:23:00;8.20;;;1.95;;
46689;SDS011;32423;45.398;10.874;2023-07-13T14:25:45;4.97;;;1.75;;
46689;SDS011;32423;45.398;10.874;2023-07-13T14:28:31;10.23;;;2.00;;
46689;SDS011;32423;45.398;10.874;2023-07-13T14:31:16;6.90;;;2.00;;
46689;SDS011;32423;45.398;10.874;2023-07-13T14:34:02;3.20;;;1.52;;
46689;SDS011;32423;45.398;10.874;2023-07-13T14:36:47;8.02;;;1.90;;
46689;SDS011;32423;45.398;10.874;2023-07-13T14:39:33;8.18;;;1.95;;
46689;SDS011;32423;45.398;10.874;2023-07-13T14:42:18;7.07;;;2.28;;
46689;SDS011;32423;45.398;10.874;2023-07-13T14:45:03;12.93;;;2.72;;
46689;SDS011;32423;45.398;10.874;2023-07-13T14:47:47;7.00;;;1.83;;
46689;SDS011;32423;45.398;10.874;2023-07-13T14:50:32;10.55;;;2.10;;
46689;SDS011;32423;45.398;10.874;2023-07-13T14:53:19;7.15;;;2.10;;
46689;SDS011;32423;45.398;10.874;2023-07-13T14:56:11;8.02;;;2.70;;
46689;SDS011;32423;45.398;10.874;2023-07-13T14:58:56;9.68;;;2.50;;
46689;SDS011;32423;45.398;10.874;2023-07-13T15:01:41;6.75;;;2.17;;
46689;SDS011;32423;45.398;10.874;2023-07-13T15:04:25;10.10;;;2.03;;
46689;SDS011;32423;45.398;10.874;2023-07-13T15:07:11;11.88;;;3.17;;
46689;SDS011;32423;45.398;10.874;2023-07-13T15:09:57;16.15;;;3.35;;
46689;SDS011;32423;45.398;10.874;2023-07-13T15:12:41;8.80;;;2.25;;
46689;SDS011;32423;45.398;10.874;2023-07-13T15:15:27;7.45;;;2.10;;
46689;SDS011;32423;45.398;10.874;2023-07-13T15:18:16;9.23;;;3.38;;
46689;SDS011;32423;45.398;10.874;2023-07-13T15:21:03;8.45;;;2.25;;
46689;SDS011;32423;45.398;10.874;2023-07-13T15:23:49;7.15;;;2.33;;
46689;SDS011;32423;45.398;10.874;2023-07-13T15:26:35;9.25;;;2.15;;
46689;SDS011;32423;45.398;10.874;2023-07-13T15:29:20;7.18;;;1.50;;
46689;SDS011;32423;45.398;10.874;2023-07-13T15:32:04;8.18;;;2.08;;
46689;SDS011;32423;45.398;10.874;2023-07-13T15:34:49;8.30;;;1.92;;
46689;SDS011;32423;45.398;10.874;2023-07-13T15:37:34;4.53;;;2.03;;
46689;SDS011;32423;45.398;10.874;2023-07-13T15:40:19;6.18;;;2.15;;
46689;SDS011;32423;45.398;10.874;2023-07-13T15:43:09;8.65;;;1.35;;
46689;SDS011;32423;45.398;10.874;2023-07-13T15:45:58;1.67;;;1.05;;
46689;SDS011;32423;45.398;10.874;2023-07-13T15:48:43;4.72;;;1.33;;
46689;SDS011;32423;45.398;10.874;2023-07-13T15:51:30;7.50;;;1.55;;
46689;SDS011;32423;45.398;10.874;2023-07-13T15:54:18;3.40;;;1.45;;
46689;SDS011;32423;45.398;10.874;2023-07-13T15:57:04;7.75;;;1.90;;
46689;SDS011;32423;45.398;10.874;2023-07-13T15:59:49;15.60;;;1.95;;
46689;SDS011;32423;45.398;10.874;2023-07-13T16:02:34;10.05;;;1.67;;
46689;SDS011;32423;45.398;10.874;2023-07-13T16:05:19;20.85;;;3.67;;
46689;SDS011;32423;45.398;10.874;2023-07-13T16:08:11;16.35;;;2.65;;
46689;SDS011;32423;45.398;10.874;2023-07-13T16:11:12;16.33;;;3.13;;
46689;SDS011;32423;45.398;10.874;2023-07-13T16:14:01;9.85;;;2.03;;
46689;SDS011;32423;45.398;10.874;2023-07-13T16:16:45;8.23;;;2.05;;
46689;SDS011;32423;45.398;10.874;2023-07-13T16:19:33;7.03;;;2.30;;
46689;SDS011;32423;45.398;10.874;2023-07-13T16:22:18;8.48;;;3.05;;
46689;SDS011;32423;45.398;10.874;2023-07-13T16:28:19;22.73;;;2.58;;
46689;SDS011;32423;45.398;10.874;2023-07-13T16:31:04;7.25;;;1.95;;
46689;SDS011;32423;45.398;10.874;2023-07-13T16:33:49;27.52;;;5.20;;
46689;SDS011;32423;45.398;10.874;2023-07-13T16:36:34;54.13;;;12.30;;
46689;SDS011;32423;45.398;10.874;2023-07-13T16:39:20;21.98;;;3.70;;
46689;SDS011;32423;45.398;10.874;2023-07-13T16:42:08;21.20;;;5.15;;
46689;SDS011;32423;45.398;10.874;2023-07-13T16:44:56;16.20;;;3.40;;
46689;SDS011;32423;45.398;10.874;2023-07-13T16:47:41;17.10;;;3.00;;
46689;SDS011;32423;45.398;10.874;2023-07-13T16:50:30;11.90;;;2.78;;
46689;SDS011;32423;45.398;10.874;2023-07-13T16:56:01;6.10;;;2.42;;
46689;SDS011;32423;45.398;10.874;2023-07-13T16:58:48;14.10;;;1.77;;
46689;SDS011;32423;45.398;10.874;2023-07-13T17:01:34;7.80;;;2.10;;
46689;SDS011;32423;45.398;10.874;2023-07-13T17:04:21;7.95;;;2.22;;
46689;SDS011;32423;45.398;10.874;2023-07-13T17:07:09;20.85;;;3.70;;
46689;SDS011;32423;45.398;10.874;2023-07-13T17:09:55;17.10;;;4.20;;
46689;SDS011;32423;45.398;10.874;2023-07-13T17:12:40;29.08;;;4.80;;
46689;SDS011;32423;45.398;10.874;2023-07-13T17:15:33;17.13;;;4.68;;
46689;SDS011;32423;45.398;10.874;2023-07-13T17:18:18;12.60;;;2.38;;
46689;SDS011;32423;45.398;10.874;2023-07-13T17:21:03;7.22;;;1.63;;
46689;SDS011;32423;45.398;10.874;2023-07-13T17:23:50;6.53;;;2.13;;
46689;SDS011;32423;45.398;10.874;2023-07-13T17:26:36;7.95;;;1.98;;
46689;SDS011;32423;45.398;10.874;2023-07-13T17:29:21;9.10;;;2.40;;
46689;SDS011;32423;45.398;10.874;2023-07-13T17:32:05;9.18;;;1.67;;
46689;SDS011;32423;45.398;10.874;2023-07-13T17:34:55;3.83;;;1.45;;